Time,TemperatureF,DewpointF,PressureIn,WindDirection,WindDirectionDegrees,WindSpeedMPH,WindSpeedGustMPH,Humidity,HourlyPrecipIn,Conditions,Clouds,dailyrainin,SoftwareType,DateUTC
2013-05-31 00:09:00,47.0,29.0,30.13,North,0,8.0,13.0,49,-99.99,,,-99.99,,2013-05-31 06:09:00,
2013-05-31 00:19:00,46.0,28.0,30.14,North,350,7.0,9.0,48,-99.99,,,-99.99,,2013-05-31 06:19:00,
2013-05-31 00:24:00,46.0,28.0,30.13,NW,320,7.0,9.0,49,-99.99,,,-99.99,,2013-05-31 06:24:00,
2013-05-31 00:34:00,46.0,28.0,30.14,NNW,340,10.0,12.0,50,-99.99,,,-99.99,,2013-05-31 06:34:00,
2013-05-31 00:39:00,46.0,28.0,30.13,North,0,4.0,11.0,49,-99.99,,,-99.99,,2013-05-31 06:39:00,
2013-05-31 00:49:00,46.0,28.0,30.13,NNW,340,7.0,11.0,49,-99.99,,,-99.99,,2013-05-31 06:49:00,
2013-05-31 00:54:00,46.0,28.0,30.12,NNW,340,7.0,11.0,49,-99.99,,,-99.99,,2013-05-31 06:54:00,
2013-05-31 00:59:00,46.0,28.0,30.13,NW,310,4.0,9.0,49,-99.99,,,-99.99,,2013-05-31 06:59:00,
2013-05-31 01:04:00,46.0,27.0,30.12,NW,310,0.0,9.0,48,-99.99,,,-99.99,,2013-05-31 07:04:00,
2013-05-31 01:09:00,46.0,27.0,30.13,WNW,300,0.0,6.0,49,-99.99,,,-99.99,,2013-05-31 07:09:00,
2013-05-31 01:14:00,46.0,29.0,30.12,WNW,290,3.0,6.0,51,-99.99,,,-99.99,,2013-05-31 07:14:00,
2013-05-31 01:24:00,45.0,28.0,30.13,WNW,290,5.0,5.0,51,-99.99,,,-99.99,,2013-05-31 07:24:00,
2013-05-31 01:34:00,45.0,28.0,30.13,NNW,330,0.0,5.0,50,-99.99,,,-99.99,,2013-05-31 07:34:00,
2013-05-31 01:44:00,45.0,29.0,30.12,NNW,330,0.0,0.0,53,-99.99,,,-99.99,,2013-05-31 07:44:00,
2013-05-31 01:54:00,45.0,28.0,30.12,NNE,30,0.0,2.0,52,-99.99,,,-99.99,,2013-05-31 07:54:00,
2013-05-31 02:04:00,45.0,27.0,30.12,NNE,30,0.0,7.0,49,-99.99,,,-99.99,,2013-05-31 08:04:00,
2013-05-31 02:14:00,45.0,27.0,30.12,WNW,300,0.0,6.0,49,-99.99,,,-99.99,,2013-05-31 08:14:00,
2013-05-31 02:19:00,45.0,27.0,30.12,WNW,300,6.0,6.0,50,-99.99,,,-99.99,,2013-05-31 08:19:00,
2013-05-31 02:24:00,45.0,27.0,30.12,ENE,60,2.0,7.0,50,-99.99,,,-99.99,,2013-05-31 08:24:00,
2013-05-31 02:29:00,44.0,27.0,30.11,ENE,60,1.0,2.0,49,-99.99,,,-99.99,,2013-05-31 08:29:00,
2013-05-31 02:39:00,44.0,27.0,30.11,ENE,60,0.0,0.0,50,-99.99,,,-99.99,,2013-05-31 08:39:00,
2013-05-31 02:49:00,44.0,29.0,30.12,ENE,60,0.0,0.0,55,-99.99,,,-99.99,,2013-05-31 08:49:00,
2013-05-31 02:54:00,44.0,28.0,30.12,ENE,60,0.0,0.0,53,-99.99,,,-99.99,,2013-05-31 08:54:00,
2013-05-31 02:59:00,44.0,28.0,30.12,ENE,60,0.0,0.0,52,-99.99,,,-99.99,,2013-05-31 08:59:00,
2013-05-31 03:04:00,44.0,29.0,30.12,ENE,60,0.0,0.0,55,-99.99,,,-99.99,,2013-05-31 09:04:00,
2013-05-31 03:09:00,44.0,29.0,30.11,ENE,60,0.0,0.0,54,-99.99,,,-99.99,,2013-05-31 09:09:00,
2013-05-31 03:14:00,44.0,29.0,30.12,ENE,60,0.0,0.0,55,-99.99,,,-99.99,,2013-05-31 09:14:00,
2013-05-31 03:19:00,44.0,30.0,30.12,ENE,60,0.0,0.0,58,-99.99,,,-99.99,,2013-05-31 09:19:00,
2013-05-31 03:29:00,44.0,29.0,30.12,ENE,60,0.0,0.0,56,-99.99,,,-99.99,,2013-05-31 09:29:00,
2013-05-31 03:39:00,44.0,29.0,30.11,ENE,60,0.0,0.0,57,-99.99,,,-99.99,,2013-05-31 09:39:00,
2013-05-31 03:44:00,44.0,29.0,30.12,ENE,60,0.0,0.0,56,-99.99,,,-99.99,,2013-05-31 09:44:00,
2013-05-31 03:49:00,43.0,30.0,30.11,ESE,110,0.0,0.0,60,-99.99,,,-99.99,,2013-05-31 09:49:00,
2013-05-31 03:54:00,43.0,29.0,30.12,North,10,0.0,6.0,58,-99.99,,,-99.99,,2013-05-31 09:54:00,
2013-05-31 04:04:00,43.0,29.0,30.12,South,170,9.0,0.0,57,-99.99,,,-99.99,,2013-05-31 10:04:00,
2013-05-31 04:09:00,43.0,31.0,30.13,West,280,9.0,14.0,63,-99.99,,,-99.99,,2013-05-31 10:09:00,
2013-05-31 04:19:00,43.0,25.0,30.13,WNW,290,4.0,15.0,49,-99.99,,,-99.99,,2013-05-31 10:19:00,
2013-05-31 04:24:00,44.0,25.0,30.12,North,0,4.0,9.0,47,-99.99,,,-99.99,,2013-05-31 10:24:00,
2013-05-31 04:29:00,44.0,25.0,30.13,North,350,22.0,22.0,47,-99.99,,,-99.99,,2013-05-31 10:29:00,
2013-05-31 04:34:00,44.0,24.0,30.13,North,350,14.0,19.0,45,-99.99,,,-99.99,,2013-05-31 10:34:00,
2013-05-31 04:39:00,44.0,24.0,30.12,NNW,340,15.0,20.0,45,-99.99,,,-99.99,,2013-05-31 10:39:00,
2013-05-31 04:44:00,44.0,24.0,30.13,North,350,11.0,24.0,45,-99.99,,,-99.99,,2013-05-31 10:44:00,
2013-05-31 04:54:00,43.0,26.0,30.14,NE,40,12.0,15.0,50,-99.99,,,-99.99,,2013-05-31 10:54:00,
2013-05-31 04:59:00,43.0,27.0,30.14,NE,40,10.0,20.0,52,-99.99,,,-99.99,,2013-05-31 10:59:00,
2013-05-31 05:04:00,43.0,28.0,30.14,NNE,30,11.0,18.0,56,-99.99,,,-99.99,,2013-05-31 11:04:00,
2013-05-31 05:09:00,42.0,28.0,30.15,NE,40,9.0,18.0,58,-99.99,,,-99.99,,2013-05-31 11:09:00,
2013-05-31 05:14:00,42.0,29.0,30.15,NNE,20,9.0,20.0,60,-99.99,,,-99.99,,2013-05-31 11:14:00,
2013-05-31 05:24:00,41.0,29.0,30.16,NE,50,11.0,14.0,62,-99.99,,,-99.99,,2013-05-31 11:24:00,
2013-05-31 05:34:00,41.0,30.0,30.16,NNE,30,4.0,10.0,64,-99.99,,,-99.99,,2013-05-31 11:34:00,
2013-05-31 05:44:00,40.0,31.0,30.16,NNE,30,9.0,10.0,67,-99.99,,,-99.99,,2013-05-31 11:44:00,
2013-05-31 05:49:00,40.0,31.0,30.17,NE,50,4.0,12.0,69,-99.99,,,-99.99,,2013-05-31 11:49:00,
2013-05-31 05:54:00,40.0,31.0,30.17,NNE,20,10.0,11.0,71,-99.99,,,-99.99,,2013-05-31 11:54:00,
2013-05-31 05:59:00,40.0,32.0,30.17,NE,40,8.0,12.0,73,-99.99,,,-99.99,,2013-05-31 11:59:00,
2013-05-31 06:09:00,39.0,33.0,30.17,NE,50,8.0,11.0,79,-99.99,,,-99.99,,2013-05-31 12:09:00,
2013-05-31 06:14:00,38.0,33.0,30.17,ENE,70,9.0,11.0,81,-99.99,,,-99.99,,2013-05-31 12:14:00,
2013-05-31 06:24:00,38.0,33.0,30.17,North,0,5.0,10.0,82,-99.99,,,-99.99,,2013-05-31 12:24:00,
2013-05-31 06:29:00,38.0,33.0,30.17,NE,40,6.0,7.0,82,-99.99,,,-99.99,,2013-05-31 12:29:00,
2013-05-31 06:34:00,38.0,34.0,30.17,NE,40,0.0,5.0,85,-99.99,,,-99.99,,2013-05-31 12:34:00,
2013-05-31 06:44:00,38.0,35.0,30.16,ESE,110,0.0,0.0,88,-99.99,,,-99.99,,2013-05-31 12:44:00,
2013-05-31 06:49:00,37.0,35.0,30.17,East,100,0.0,5.0,90,-99.99,,,-99.99,,2013-05-31 12:49:00,
2013-05-31 06:59:00,38.0,35.0,30.17,ESE,110,5.0,0.0,90,-99.99,,,-99.99,,2013-05-31 12:59:00,
2013-05-31 07:09:00,38.0,35.0,30.17,East,100,0.0,3.0,89,-99.99,,,-99.99,,2013-05-31 13:09:00,
2013-05-31 07:19:00,40.0,36.0,30.17,SE,130,0.0,3.0,84,-99.99,,,-99.99,,2013-05-31 13:19:00,
2013-05-31 07:29:00,41.0,35.0,30.19,East,90,0.0,2.0,79,-99.99,,,-99.99,,2013-05-31 13:29:00,
2013-05-31 07:39:00,42.0,35.0,30.19,WNW,300,4.0,0.0,76,-99.99,,,-99.99,,2013-05-31 13:39:00,
2013-05-31 07:49:00,43.0,35.0,30.19,WNW,290,0.0,0.0,73,-99.99,,,-99.99,,2013-05-31 13:49:00,
2013-05-31 07:54:00,44.0,36.0,30.19,WNW,290,0.0,0.0,72,-99.99,,,-99.99,,2013-05-31 13:54:00,
2013-05-31 07:59:00,45.0,35.0,30.19,WNW,290,0.0,0.0,69,-99.99,,,-99.99,,2013-05-31 13:59:00,
2013-05-31 08:04:00,45.0,36.0,30.19,WNW,290,0.0,0.0,68,-99.99,,,-99.99,,2013-05-31 14:04:00,
2013-05-31 08:14:00,46.0,34.0,30.18,ESE,120,4.0,5.0,62,-99.99,,,-99.99,,2013-05-31 14:14:00,
2013-05-31 08:19:00,47.0,34.0,30.19,East,90,0.0,9.0,60,-99.99,,,-99.99,,2013-05-31 14:19:00,
2013-05-31 08:24:00,47.0,33.0,30.19,East,90,0.0,0.0,56,-99.99,,,-99.99,,2013-05-31 14:24:00,
2013-05-31 08:29:00,48.0,32.0,30.18,NNE,20,4.0,0.0,54,-99.99,,,-99.99,,2013-05-31 14:29:00,
2013-05-31 08:34:00,49.0,31.0,30.18,NNE,20,4.0,5.0,48,-99.99,,,-99.99,,2013-05-31 14:34:00,
2013-05-31 08:44:00,51.0,27.0,30.18,West,270,6.0,22.0,40,-99.99,,,-99.99,,2013-05-31 14:44:00,
2013-05-31 08:54:00,51.0,25.0,30.18,NW,310,16.0,20.0,37,-99.99,,,-99.99,,2013-05-31 14:54:00,
2013-05-31 08:59:00,51.0,25.0,30.18,WNW,300,10.0,24.0,37,-99.99,,,-99.99,,2013-05-31 14:59:00,
2013-05-31 09:04:00,51.0,25.0,30.18,West,280,23.0,27.0,36,-99.99,,,-99.99,,2013-05-31 15:04:00,
2013-05-31 09:14:00,52.0,27.0,30.17,WNW,300,17.0,17.0,39,-99.99,,,-99.99,,2013-05-31 15:14:00,
2013-05-31 09:24:00,52.0,26.0,30.17,West,270,7.0,21.0,37,-99.99,,,-99.99,,2013-05-31 15:24:00,
2013-05-31 09:34:00,52.0,27.0,30.17,North,0,16.0,23.0,37,-99.99,,,-99.99,,2013-05-31 15:34:00,
2013-05-31 09:39:00,52.0,25.0,30.19,West,270,22.0,24.0,35,-99.99,,,-99.99,,2013-05-31 15:39:00,
2013-05-31 09:49:00,52.0,26.0,30.17,WNW,300,20.0,25.0,37,-99.99,,,-99.99,,2013-05-31 15:49:00,
2013-05-31 09:59:00,52.0,24.0,30.18,West,260,17.0,21.0,34,-99.99,,,-99.99,,2013-05-31 15:59:00,
2013-05-31 10:04:00,52.0,25.0,30.18,NNW,340,16.0,27.0,34,-99.99,,,-99.99,,2013-05-31 16:04:00,
2013-05-31 10:09:00,52.0,22.0,30.18,WNW,300,13.0,26.0,31,-99.99,,,-99.99,,2013-05-31 16:09:00,
2013-05-31 10:19:00,53.0,24.0,30.18,WNW,290,12.0,19.0,33,-99.99,,,-99.99,,2013-05-31 16:19:00,
2013-05-31 10:29:00,53.0,25.0,30.18,NNW,340,15.0,26.0,33,-99.99,,,-99.99,,2013-05-31 16:29:00,
2013-05-31 10:39:00,54.0,24.0,30.19,WNW,300,10.0,25.0,32,-99.99,,,-99.99,,2013-05-31 16:39:00,
2013-05-31 10:44:00,54.0,24.0,30.19,NNW,330,16.0,18.0,31,-99.99,,,-99.99,,2013-05-31 16:44:00,
2013-05-31 10:54:00,54.0,23.0,30.19,NNW,330,16.0,22.0,30,-99.99,,,-99.99,,2013-05-31 16:54:00,
2013-05-31 10:59:00,54.0,24.0,30.18,NNE,20,8.0,20.0,30,-99.99,,,-99.99,,2013-05-31 16:59:00,
2013-05-31 11:04:00,55.0,22.0,30.19,WNW,290,11.0,20.0,28,-99.99,,,-99.99,,2013-05-31 17:04:00,
2013-05-31 11:09:00,55.0,22.0,30.19,WNW,290,11.0,23.0,28,-99.99,,,-99.99,,2013-05-31 17:09:00,
2013-05-31 11:19:00,54.0,21.0,30.20,West,280,18.0,19.0,27,-99.99,,,-99.99,,2013-05-31 17:19:00,
2013-05-31 11:29:00,54.0,23.0,30.20,WNW,300,22.0,22.0,29,-99.99,,,-99.99,,2013-05-31 17:29:00,
2013-05-31 11:34:00,53.0,24.0,30.21,NNE,30,20.0,24.0,32,-99.99,,,-99.99,,2013-05-31 17:34:00,
2013-05-31 11:39:00,53.0,22.0,30.20,WNW,290,18.0,22.0,30,-99.99,,,-99.99,,2013-05-31 17:39:00,
2013-05-31 11:49:00,53.0,28.0,30.20,NW,310,7.0,16.0,37,-99.99,,,-99.99,,2013-05-31 17:49:00,
2013-05-31 11:59:00,53.0,26.0,30.20,North,10,13.0,17.0,35,-99.99,,,-99.99,,2013-05-31 17:59:00,
2013-05-31 12:04:00,54.0,25.0,30.20,WNW,290,8.0,20.0,33,-99.99,,,-99.99,,2013-05-31 18:04:00,
2013-05-31 12:14:00,54.0,25.0,30.20,North,0,9.0,14.0,32,-99.99,,,-99.99,,2013-05-31 18:14:00,
2013-05-31 12:24:00,54.0,21.0,30.20,WNW,300,15.0,21.0,28,-99.99,,,-99.99,,2013-05-31 18:24:00,
2013-05-31 12:34:00,55.0,21.0,30.19,North,350,11.0,23.0,27,-99.99,,,-99.99,,2013-05-31 18:34:00,
2013-05-31 12:44:00,56.0,22.0,30.20,WNW,300,19.0,24.0,27,-99.99,,,-99.99,,2013-05-31 18:44:00,
2013-05-31 12:49:00,56.0,20.0,30.19,West,280,10.0,21.0,25,-99.99,,,-99.99,,2013-05-31 18:49:00,
2013-05-31 12:59:00,56.0,18.0,30.19,NW,320,17.0,22.0,23,-99.99,,,-99.99,,2013-05-31 18:59:00,
2013-05-31 13:04:00,56.0,17.0,30.19,West,260,17.0,31.0,22,-99.99,,,-99.99,,2013-05-31 19:04:00,
2013-05-31 13:09:00,56.0,18.0,30.19,WSW,250,16.0,26.0,23,-99.99,,,-99.99,,2013-05-31 19:09:00,
2013-05-31 13:14:00,55.0,19.0,30.19,North,350,15.0,25.0,24,-99.99,,,-99.99,,2013-05-31 19:14:00,
2013-05-31 13:24:00,56.0,18.0,30.19,NW,310,17.0,23.0,22,-99.99,,,-99.99,,2013-05-31 19:24:00,
2013-05-31 13:34:00,55.0,17.0,30.20,West,270,22.0,30.0,22,-99.99,,,-99.99,,2013-05-31 19:34:00,
2013-05-31 13:41:00,55.0,19.0,30.20,WNW,290,15.0,19.0,24,-99.99,,,-99.99,,2013-05-31 19:41:00,
2013-05-31 13:46:00,56.0,18.0,30.19,West,260,15.0,29.0,23,-99.99,,,-99.99,,2013-05-31 19:46:00,
2013-05-31 13:51:00,56.0,20.0,30.20,West,280,23.0,24.0,25,-99.99,,,-99.99,,2013-05-31 19:51:00,
2013-05-31 13:56:00,56.0,20.0,30.20,WNW,290,13.0,26.0,24,-99.99,,,-99.99,,2013-05-31 19:56:00,
2013-05-31 14:11:00,57.0,22.0,30.20,North,350,21.0,25.0,25,-99.99,,,-99.99,,2013-05-31 20:11:00,
2013-05-31 14:16:00,57.0,20.0,30.20,WNW,290,16.0,28.0,23,-99.99,,,-99.99,,2013-05-31 20:16:00,
2013-05-31 14:21:00,56.0,20.0,30.20,West,270,5.0,25.0,24,-99.99,,,-99.99,,2013-05-31 20:21:00,
2013-05-31 14:31:00,57.0,21.0,30.20,WNW,300,16.0,27.0,24,-99.99,,,-99.99,,2013-05-31 20:31:00,
2013-05-31 14:36:00,56.0,20.0,30.21,WSW,240,21.0,27.0,24,-99.99,,,-99.99,,2013-05-31 20:36:00,
2013-05-31 14:41:00,57.0,20.0,30.19,West,270,20.0,26.0,24,-99.99,,,-99.99,,2013-05-31 20:41:00,
2013-05-31 14:51:00,58.0,20.0,30.20,NNW,330,30.0,30.0,23,-99.99,,,-99.99,,2013-05-31 20:51:00,
2013-05-31 14:56:00,58.0,19.0,30.20,NW,320,13.0,26.0,21,-99.99,,,-99.99,,2013-05-31 20:56:00,
2013-05-31 15:06:00,59.0,21.0,30.20,West,270,17.0,22.0,23,-99.99,,,-99.99,,2013-05-31 21:06:00,
2013-05-31 15:16:00,59.0,21.0,30.20,WNW,290,11.0,23.0,23,-99.99,,,-99.99,,2013-05-31 21:16:00,
2013-05-31 15:21:00,59.0,22.0,30.21,NW,320,9.0,15.0,24,-99.99,,,-99.99,,2013-05-31 21:21:00,
2013-05-31 15:31:00,59.0,20.0,30.21,WNW,290,19.0,19.0,22,-99.99,,,-99.99,,2013-05-31 21:31:00,
2013-05-31 15:36:00,58.0,20.0,30.21,NW,320,8.0,22.0,22,-99.99,,,-99.99,,2013-05-31 21:36:00,
2013-05-31 15:41:00,59.0,19.0,30.21,NW,320,12.0,24.0,21,-99.99,,,-99.99,,2013-05-31 21:41:00,
2013-05-31 15:46:00,58.0,21.0,30.21,WNW,290,13.0,24.0,23,-99.99,,,-99.99,,2013-05-31 21:46:00,
2013-05-31 15:56:00,58.0,20.0,30.22,West,270,20.0,25.0,23,-99.99,,,-99.99,,2013-05-31 21:56:00,
2013-05-31 16:01:00,57.0,18.0,30.21,WNW,290,14.0,26.0,22,-99.99,,,-99.99,,2013-05-31 22:01:00,
2013-05-31 16:06:00,57.0,20.0,30.21,WNW,290,10.0,27.0,23,-99.99,,,-99.99,,2013-05-31 22:06:00,
2013-05-31 16:11:00,57.0,22.0,30.21,NW,310,12.0,17.0,25,-99.99,,,-99.99,,2013-05-31 22:11:00,
2013-05-31 16:21:00,58.0,19.0,30.22,WNW,300,16.0,24.0,22,-99.99,,,-99.99,,2013-05-31 22:21:00,
2013-05-31 16:31:00,58.0,21.0,30.22,West,260,14.0,28.0,23,-99.99,,,-99.99,,2013-05-31 22:31:00,
2013-05-31 16:36:00,57.0,18.0,30.22,West,260,19.0,30.0,22,-99.99,,,-99.99,,2013-05-31 22:36:00,
2013-05-31 16:46:00,56.0,19.0,30.22,North,10,13.0,22.0,23,-99.99,,,-99.99,,2013-05-31 22:46:00,
2013-05-31 16:51:00,57.0,19.0,30.22,North,350,10.0,27.0,23,-99.99,,,-99.99,,2013-05-31 22:51:00,
2013-05-31 16:56:00,57.0,19.0,30.23,North,10,14.0,25.0,22,-99.99,,,-99.99,,2013-05-31 22:56:00,
2013-05-31 17:01:00,58.0,20.0,30.23,NNE,20,6.0,25.0,23,-99.99,,,-99.99,,2013-05-31 23:01:00,
2013-05-31 17:06:00,58.0,20.0,30.23,NNW,330,10.0,18.0,22,-99.99,,,-99.99,,2013-05-31 23:06:00,
2013-05-31 17:11:00,58.0,19.0,30.23,North,10,7.0,17.0,21,-99.99,,,-99.99,,2013-05-31 23:11:00,
2013-05-31 17:16:00,58.0,19.0,30.23,NNW,330,6.0,19.0,21,-99.99,,,-99.99,,2013-05-31 23:16:00,
2013-05-31 17:21:00,58.0,19.0,30.24,NW,320,6.0,18.0,21,-99.99,,,-99.99,,2013-05-31 23:21:00,
2013-05-31 17:31:00,57.0,18.0,30.23,NW,310,17.0,18.0,21,-99.99,,,-99.99,,2013-05-31 23:31:00,
2013-05-31 17:41:00,55.0,17.0,30.23,NNW,330,6.0,21.0,22,-99.99,,,-99.99,,2013-05-31 23:41:00,
2013-05-31 17:46:00,56.0,20.0,30.23,NNW,330,14.0,14.0,24,-99.99,,,-99.99,,2013-05-31 23:46:00,
2013-05-31 17:57:00,57.0,18.0,30.23,NW,320,11.0,18.0,21,-99.99,,,-99.99,,2013-05-31 23:57:00,
2013-05-31 18:02:00,56.0,16.0,30.23,NW,310,14.0,19.0,20,-99.99,,,-99.99,,2013-06-01 00:02:00,
2013-05-31 18:07:00,56.0,15.0,30.23,WNW,300,21.0,24.0,20,-99.99,,,-99.99,,2013-06-01 00:07:00,
2013-05-31 18:12:00,56.0,17.0,30.23,NNW,340,21.0,26.0,22,-99.99,,,-99.99,,2013-06-01 00:12:00,
2013-05-31 18:22:00,57.0,18.0,30.23,North,10,11.0,15.0,22,-99.99,,,-99.99,,2013-06-01 00:22:00,
2013-05-31 18:27:00,57.0,17.0,30.23,NNW,340,10.0,14.0,21,-99.99,,,-99.99,,2013-06-01 00:27:00,
2013-05-31 18:32:00,56.0,15.0,30.23,WNW,300,16.0,16.0,20,-99.99,,,-99.99,,2013-06-01 00:32:00,
2013-05-31 18:42:00,56.0,15.0,30.23,West,280,16.0,18.0,20,-99.99,,,-99.99,,2013-06-01 00:42:00,
2013-05-31 18:47:00,56.0,16.0,30.24,WNW,290,14.0,20.0,21,-99.99,,,-99.99,,2013-06-01 00:47:00,
2013-05-31 18:57:00,56.0,15.0,30.23,NW,320,17.0,18.0,20,-99.99,,,-99.99,,2013-06-01 00:57:00,
2013-05-31 19:07:00,55.0,15.0,30.24,NW,310,11.0,16.0,20,-99.99,,,-99.99,,2013-06-01 01:07:00,
2013-05-31 19:12:00,55.0,16.0,30.24,North,0,10.0,16.0,21,-99.99,,,-99.99,,2013-06-01 01:12:00,
2013-05-31 19:22:00,55.0,16.0,30.24,NW,310,9.0,16.0,21,-99.99,,,-99.99,,2013-06-01 01:22:00,
2013-05-31 19:32:00,55.0,16.0,30.24,NNW,330,10.0,12.0,22,-99.99,,,-99.99,,2013-06-01 01:32:00,
2013-05-31 19:37:00,55.0,18.0,30.24,NW,310,12.0,12.0,24,-99.99,,,-99.99,,2013-06-01 01:37:00,
2013-05-31 19:47:00,54.0,18.0,30.24,WNW,290,5.0,13.0,24,-99.99,,,-99.99,,2013-06-01 01:47:00,
2013-05-31 19:52:00,54.0,18.0,30.25,NNW,340,8.0,13.0,24,-99.99,,,-99.99,,2013-06-01 01:52:00,
2013-05-31 19:57:00,53.0,17.0,30.25,NW,310,8.0,12.0,23,-99.99,,,-99.99,,2013-06-01 01:57:00,
2013-05-31 20:02:00,53.0,19.0,30.25,North,0,9.0,9.0,27,-99.99,,,-99.99,,2013-06-01 02:02:00,
2013-05-31 20:12:00,52.0,21.0,30.25,NNW,330,6.0,8.0,30,-99.99,,,-99.99,,2013-06-01 02:12:00,
2013-05-31 20:22:00,50.0,21.0,30.25,North,0,8.0,9.0,32,-99.99,,,-99.99,,2013-06-01 02:22:00,
2013-05-31 20:27:00,49.0,20.0,30.25,NW,320,8.0,8.0,32,-99.99,,,-99.99,,2013-06-01 02:27:00,
2013-05-31 20:32:00,48.0,22.0,30.26,NW,320,9.0,9.0,35,-99.99,,,-99.99,,2013-06-01 02:32:00,
2013-05-31 20:37:00,48.0,21.0,30.26,NW,320,9.0,9.0,34,-99.99,,,-99.99,,2013-06-01 02:37:00,
2013-05-31 20:42:00,47.0,20.0,30.26,NNW,340,7.0,9.0,34,-99.99,,,-99.99,,2013-06-01 02:42:00,
2013-05-31 20:52:00,47.0,19.0,30.26,NNW,340,6.0,8.0,33,-99.99,,,-99.99,,2013-06-01 02:52:00,
2013-05-31 21:02:00,46.0,20.0,30.27,North,10,3.0,6.0,36,-99.99,,,-99.99,,2013-06-01 03:02:00,
2013-05-31 21:07:00,45.0,20.0,30.27,NE,40,6.0,6.0,37,-99.99,,,-99.99,,2013-06-01 03:07:00,
2013-05-31 21:12:00,45.0,20.0,30.27,NNE,20,4.0,7.0,37,-99.99,,,-99.99,,2013-06-01 03:12:00,
2013-05-31 21:17:00,44.0,20.0,30.27,NNE,30,3.0,5.0,38,-99.99,,,-99.99,,2013-06-01 03:17:00,
2013-05-31 21:27:00,44.0,19.0,30.27,North,350,0.0,5.0,38,-99.99,,,-99.99,,2013-06-01 03:27:00,
2013-05-31 21:32:00,44.0,19.0,30.28,North,10,0.0,6.0,37,-99.99,,,-99.99,,2013-06-01 03:32:00,
2013-05-31 21:37:00,44.0,19.0,30.28,North,10,0.0,5.0,37,-99.99,,,-99.99,,2013-06-01 03:37:00,
2013-05-31 21:42:00,43.0,22.0,30.28,North,10,0.0,0.0,43,-99.99,,,-99.99,,2013-06-01 03:42:00,
2013-05-31 21:47:00,43.0,23.0,30.28,North,10,0.0,0.0,45,-99.99,,,-99.99,,2013-06-01 03:47:00,
2013-05-31 21:52:00,43.0,23.0,30.29,NNW,330,3.0,5.0,46,-99.99,,,-99.99,,2013-06-01 03:52:00,
2013-05-31 22:02:00,42.0,23.0,30.29,North,350,3.0,6.0,47,-99.99,,,-99.99,,2013-06-01 04:02:00,
2013-05-31 22:07:00,42.0,23.0,30.29,NW,320,5.0,7.0,48,-99.99,,,-99.99,,2013-06-01 04:07:00,
2013-05-31 22:12:00,41.0,22.0,30.29,NNW,340,6.0,7.0,47,-99.99,,,-99.99,,2013-06-01 04:12:00,
2013-05-31 22:17:00,41.0,23.0,30.29,NNW,340,0.0,6.0,48,-99.99,,,-99.99,,2013-06-01 04:17:00,
2013-05-31 22:27:00,40.0,24.0,30.30,NNW,340,0.0,5.0,52,-99.99,,,-99.99,,2013-06-01 04:27:00,
2013-05-31 22:37:00,39.0,23.0,30.30,North,0,0.0,5.0,53,-99.99,,,-99.99,,2013-06-01 04:37:00,
2013-05-31 22:42:00,39.0,22.0,30.30,North,0,0.0,0.0,51,-99.99,,,-99.99,,2013-06-01 04:42:00,
2013-05-31 22:47:00,39.0,24.0,30.30,North,0,0.0,0.0,54,-99.99,,,-99.99,,2013-06-01 04:47:00,
2013-05-31 22:52:00,39.0,22.0,30.30,North,0,0.0,0.0,50,-99.99,,,-99.99,,2013-06-01 04:52:00,
2013-05-31 23:02:00,38.0,22.0,30.30,North,0,0.0,0.0,52,-99.99,,,-99.99,,2013-06-01 05:02:00,
2013-05-31 23:12:00,38.0,21.0,30.31,NNE,20,0.0,4.0,51,-99.99,,,-99.99,,2013-06-01 05:12:00,
2013-05-31 23:22:00,37.0,24.0,30.31,NNE,30,0.0,4.0,59,-99.99,,,-99.99,,2013-06-01 05:22:00,
2013-05-31 23:27:00,37.0,23.0,30.31,NNE,30,0.0,0.0,58,-99.99,,,-99.99,,2013-06-01 05:27:00,
2013-05-31 23:32:00,37.0,23.0,30.31,NNE,20,0.0,0.0,58,-99.99,,,-99.99,,2013-06-01 05:32:00,
2013-05-31 23:37:00,37.0,23.0,30.32,NNE,20,0.0,2.0,57,-99.99,,,-99.99,,2013-06-01 05:37:00,
2013-05-31 23:47:00,36.0,23.0,30.32,NNE,20,0.0,0.0,59,-99.99,,,-99.99,,2013-06-01 05:47:00,
2013-05-31 23:52:00,36.0,23.0,30.32,NNE,20,0.0,0.0,58,-99.99,,,-99.99,,2013-06-01 05:52:00,
2013-05-31 23:57:00,36.0,22.0,30.32,NNE,20,0.0,0.0,58,-99.99,,,-99.99,,2013-06-01 05:57:00,